createdAt,value
2022-12-15T00:03:10.533Z,99422.41
2022-12-15T00:08:30.784Z,99439.81
2022-12-15T00:13:50.742Z,99436.84
2022-12-15T00:19:10.573Z,99436.28
2022-12-15T00:24:30.438Z,99444.47
2022-12-15T00:29:50.300Z,99452.09
2022-12-15T00:35:10.155Z,99453.50
2022-12-15T00:40:11.603Z,99452.78
2022-12-15T00:45:12.833Z,99463.16
2022-12-15T00:50:32.860Z,99461.69
2022-12-15T00:55:52.606Z,99464.72
2022-12-15T01:01:13.494Z,99469.00
2022-12-15T01:06:33.241Z,99465.34
2022-12-15T01:11:53.080Z,99481.50
2022-12-15T01:17:12.783Z,99485.00
2022-12-15T01:22:14.073Z,99502.66
2022-12-15T01:27:15.285Z,99493.50
2022-12-15T01:32:16.579Z,99498.56
2022-12-15T01:37:17.866Z,99515.09
2022-12-15T01:42:19.107Z,99519.88
2022-12-15T01:47:20.374Z,99521.44
2022-12-15T01:52:21.565Z,99531.94
2022-12-15T01:57:22.868Z,99523.88
2022-12-15T02:02:24.256Z,99535.16
2022-12-15T02:07:25.576Z,99546.22
2022-12-15T02:12:26.841Z,99537.72
2022-12-15T02:17:28.135Z,99542.94
2022-12-15T02:22:29.371Z,99538.94
2022-12-15T02:27:30.635Z,99541.38
2022-12-15T02:32:31.930Z,99538.22
2022-12-15T02:37:33.253Z,99542.94
2022-12-15T02:42:34.566Z,99544.94
2022-12-15T02:47:35.801Z,99552.06
2022-12-15T02:52:37.119Z,99566.44
2022-12-15T02:57:38.471Z,99557.97
2022-12-15T03:02:39.845Z,99556.78
2022-12-15T03:07:42.748Z,99569.59
2022-12-15T03:12:44.809Z,99574.94
2022-12-15T03:17:46.078Z,99576.28
2022-12-15T03:22:47.421Z,99578.84
2022-12-15T03:27:48.684Z,99593.13
2022-12-15T03:32:50.092Z,99594.31
2022-12-15T03:37:51.365Z,99589.25
2022-12-15T03:42:52.709Z,99590.56
2022-12-15T03:47:54.017Z,99590.22
2022-12-15T03:52:55.315Z,99597.94
2022-12-15T03:57:56.634Z,99604.34
2022-12-15T04:02:58.035Z,99600.50
2022-12-15T04:07:59.410Z,99611.34
2022-12-15T04:13:00.746Z,99606.63
2022-12-15T04:18:02.486Z,99613.88
2022-12-15T04:23:03.780Z,99617.59
2022-12-15T04:28:23.970Z,99617.00
2022-12-15T04:33:43.869Z,99622.56
2022-12-15T04:39:03.642Z,99621.81
2022-12-15T04:44:23.551Z,99627.16
2022-12-15T04:49:43.300Z,99622.09
2022-12-15T04:55:03.128Z,99609.88
2022-12-15T05:00:22.915Z,99606.41
2022-12-15T05:05:42.795Z,99620.00
2022-12-15T05:11:02.589Z,99626.06
2022-12-15T05:16:22.342Z,99632.94
2022-12-15T05:21:42.084Z,99626.47
2022-12-15T05:27:01.918Z,99630.31
2022-12-15T05:32:03.169Z,99633.91
2022-12-15T05:37:04.380Z,99644.50
2022-12-15T05:42:05.664Z,99643.69
2022-12-15T05:47:08.216Z,99647.94
2022-12-15T05:52:09.501Z,99640.63
2022-12-15T05:57:10.766Z,99665.00
2022-12-15T06:02:12.174Z,99672.59
2022-12-15T06:07:13.559Z,99673.47
2022-12-15T06:12:14.810Z,99681.69
2022-12-15T06:17:16.066Z,99682.19
2022-12-15T06:22:17.366Z,99674.66
2022-12-15T06:27:18.600Z,99682.72
2022-12-15T06:32:21.316Z,99674.81
2022-12-15T06:37:22.514Z,99674.38
2022-12-15T06:42:23.758Z,99671.81
2022-12-15T06:47:25.048Z,99690.72
2022-12-15T06:52:26.247Z,99696.19
2022-12-15T06:57:27.440Z,99689.06
2022-12-15T07:02:30.267Z,99689.06
2022-12-15T07:07:31.629Z,99694.63
2022-12-15T07:12:33.087Z,99705.13
2022-12-15T07:17:34.264Z,99704.09
2022-12-15T07:22:35.523Z,99709.25
2022-12-15T07:27:36.642Z,99713.44
2022-12-15T07:32:37.907Z,99703.59
2022-12-15T07:37:39.136Z,99710.94
2022-12-15T07:42:40.335Z,99703.59
2022-12-15T07:47:41.496Z,99710.47
2022-12-15T07:52:43.422Z,99723.84
2022-12-15T07:57:44.600Z,99728.56
2022-12-15T08:02:45.963Z,99713.31
2022-12-15T08:07:51.368Z,99707.53
2022-12-15T08:12:52.592Z,99713.81
2022-12-15T08:17:53.767Z,99730.41
2022-12-15T08:22:54.968Z,99748.03
2022-12-15T08:27:56.224Z,99753.53
2022-12-15T08:32:57.395Z,99754.69
2022-12-15T08:38:03.753Z,99759.25
2022-12-15T08:43:06.512Z,99775.38
2022-12-15T08:48:07.682Z,99770.53
2022-12-15T08:53:30.229Z,99781.94
2022-12-15T08:58:30.078Z,99780.47
2022-12-15T09:03:31.746Z,99788.53
2022-12-15T09:08:33.302Z,99780.69
2022-12-15T09:13:34.963Z,99789.78
2022-12-15T09:18:36.448Z,99797.78
2022-12-15T09:23:37.626Z,99812.63
2022-12-15T09:28:38.781Z,99807.28
2022-12-15T09:33:39.980Z,99822.78
2022-12-15T09:38:41.120Z,99829.22
2022-12-15T09:43:46.945Z,99818.94
2022-12-15T09:48:48.577Z,99833.13
2022-12-15T09:53:57.473Z,99828.34
2022-12-15T09:58:58.894Z,99837.06
2022-12-15T10:04:00.258Z,99841.19
2022-12-15T10:09:01.656Z,99832.50
2022-12-15T10:14:02.824Z,99843.91
2022-12-15T10:19:04.030Z,99849.19
2022-12-15T10:24:05.354Z,99849.25
2022-12-15T10:29:06.597Z,99837.91
2022-12-15T10:34:07.823Z,99834.72
2022-12-15T10:39:12.923Z,99833.44
2022-12-15T10:44:15.709Z,99839.59
2022-12-15T10:49:16.931Z,99833.84
2022-12-15T10:54:18.747Z,99833.56
2022-12-15T10:59:19.866Z,99827.22
2022-12-15T11:04:21.103Z,99829.47
2022-12-15T11:09:22.443Z,99823.53
2022-12-15T11:14:24.172Z,99822.84
2022-12-15T11:19:25.479Z,99815.72
2022-12-15T11:24:26.937Z,99819.47
2022-12-15T11:29:28.153Z,99815.16
2022-12-15T11:34:29.330Z,99809.09
2022-12-15T11:39:30.501Z,99806.72
2022-12-15T11:44:31.668Z,99807.31
2022-12-15T11:49:37.594Z,99808.97
2022-12-15T11:54:42.024Z,99807.31
2022-12-15T11:59:43.223Z,99801.13
2022-12-15T12:04:44.603Z,99797.66
2022-12-15T12:09:48.602Z,99797.00
2022-12-15T12:14:50.425Z,99783.31
2022-12-15T12:19:52.081Z,99785.13
2022-12-15T12:24:53.283Z,99773.03
2022-12-15T12:29:54.627Z,99767.31
2022-12-15T12:35:29.918Z,99769.97
2022-12-15T12:40:17.516Z,99755.03
2022-12-15T12:45:19.167Z,99742.09
2022-12-15T12:50:20.372Z,99742.34
2022-12-15T12:55:21.513Z,99732.00
2022-12-15T13:00:22.903Z,99710.69
2022-12-15T13:05:24.155Z,99705.06
2022-12-15T13:10:25.343Z,99697.84
2022-12-15T13:15:26.508Z,99689.28
2022-12-15T13:20:27.817Z,99688.31
2022-12-15T13:25:29.086Z,99685.72
2022-12-15T13:30:30.318Z,99675.81
2022-12-15T13:35:31.527Z,99662.03
2022-12-15T13:40:35.747Z,99653.91
2022-12-15T13:45:37.153Z,99647.81
2022-12-15T13:50:38.416Z,99635.69
2022-12-15T13:55:39.853Z,99637.88
2022-12-15T14:00:41.074Z,99637.50
2022-12-15T14:05:42.972Z,99621.19
2022-12-15T14:10:44.252Z,99630.59
2022-12-15T14:15:45.411Z,99562.38
2022-12-15T14:20:46.823Z,99615.44
2022-12-15T14:25:50.398Z,99602.47
2022-12-15T14:30:51.944Z,99596.91
2022-12-15T14:35:53.115Z,99581.28
2022-12-15T14:40:54.270Z,99585.22
2022-12-15T14:45:55.633Z,99580.84
2022-12-15T14:50:56.848Z,99570.50
2022-12-15T14:56:00.588Z,99576.34
2022-12-15T15:01:01.945Z,99592.84
2022-12-15T15:06:03.142Z,99592.88
2022-12-15T15:11:04.656Z,99591.91
2022-12-15T15:16:05.880Z,99607.81
2022-12-15T15:21:07.061Z,99616.38
2022-12-15T15:26:08.219Z,99622.28
2022-12-15T15:31:09.435Z,99639.25
2022-12-15T15:36:10.673Z,99652.59
2022-12-15T15:41:11.846Z,99658.25
2022-12-15T15:46:13.217Z,99672.38
2022-12-15T15:51:14.436Z,99681.66
2022-12-15T15:56:15.571Z,99682.59
2022-12-15T16:01:16.780Z,99702.88
2022-12-15T16:06:18.086Z,99705.19
2022-12-15T16:11:20.043Z,99703.91
2022-12-15T16:16:21.657Z,99705.41
2022-12-15T16:21:22.868Z,99698.00
2022-12-15T16:26:24.075Z,99708.91
2022-12-15T16:31:25.432Z,99703.50
2022-12-15T16:36:26.635Z,99713.06
2022-12-15T16:41:27.828Z,99712.72
2022-12-15T16:46:29.070Z,99708.88
2022-12-15T16:51:30.380Z,99699.31
2022-12-15T16:56:31.597Z,99706.69
2022-12-15T17:01:38.280Z,99712.25
2022-12-15T17:06:41.146Z,99719.63
2022-12-15T17:11:42.410Z,99719.88
2022-12-15T17:16:43.543Z,99724.63
2022-12-15T17:21:44.696Z,99734.47
2022-12-15T17:26:45.883Z,99742.38
2022-12-15T17:31:47.137Z,99769.84
2022-12-15T17:36:48.335Z,99766.97
2022-12-15T17:42:00.079Z,99748.94
2022-12-15T17:47:02.528Z,99730.16
2022-12-15T17:52:03.798Z,99735.13
2022-12-15T17:57:04.955Z,99735.75
2022-12-15T18:02:06.367Z,99742.06
2022-12-15T18:07:07.649Z,99745.78
2022-12-15T18:12:08.873Z,99770.66
2022-12-15T18:17:10.075Z,99776.59
2022-12-15T18:22:11.920Z,99784.91
2022-12-15T18:27:13.079Z,99774.31
2022-12-15T18:32:14.301Z,99758.78
2022-12-15T18:37:15.551Z,99763.53
2022-12-15T18:42:16.764Z,99761.00
2022-12-15T18:47:18.095Z,99754.91
2022-12-15T18:52:19.947Z,99742.31
2022-12-15T18:57:21.504Z,99750.56
2022-12-15T19:02:22.791Z,99739.38
2022-12-15T19:07:24.135Z,99742.94
2022-12-15T19:12:25.404Z,99741.59
2022-12-15T19:17:45.507Z,99738.59
2022-12-15T19:22:46.718Z,99744.94
2022-12-15T19:27:48.043Z,99743.59
2022-12-15T19:32:49.703Z,99750.47
2022-12-15T19:37:50.966Z,99744.59
2022-12-15T19:42:52.972Z,99748.56
2022-12-15T19:47:56.747Z,99753.69
2022-12-15T19:52:57.988Z,99753.31
2022-12-15T19:57:59.171Z,99756.63
2022-12-15T20:03:01.881Z,99753.31
2022-12-15T20:08:03.163Z,99750.56
2022-12-15T20:13:04.399Z,99745.66
2022-12-15T20:18:05.540Z,99742.88
2022-12-15T20:23:06.734Z,99734.81
2022-12-15T20:28:08.355Z,99737.16
2022-12-15T20:33:09.550Z,99734.41
2022-12-15T20:38:10.703Z,99734.78
2022-12-15T20:43:11.866Z,99733.63
2022-12-15T20:48:13.613Z,99717.91
2022-12-15T20:53:14.815Z,99599.78
2022-12-15T20:58:16.161Z,99725.56
2022-12-15T21:03:18.167Z,99723.81
2022-12-15T21:08:19.510Z,99733.63
2022-12-15T21:13:20.743Z,99729.09
2022-12-15T21:23:43.176Z,99741.50
2022-12-15T21:28:44.321Z,99749.56
2022-12-15T21:33:46.535Z,99753.31
2022-12-15T21:38:47.736Z,99750.94
2022-12-15T21:43:48.882Z,99741.28
2022-12-15T21:49:08.931Z,99742.28
2022-12-15T21:54:10.110Z,99748.16
2022-12-15T21:59:11.230Z,99749.72
2022-12-15T22:04:12.365Z,99759.13
2022-12-15T22:09:13.592Z,99757.94
2022-12-15T22:14:14.731Z,99761.22
2022-12-15T22:19:15.950Z,99761.03
2022-12-15T22:24:17.206Z,99753.16
2022-12-15T22:29:18.428Z,99748.09
2022-12-15T22:34:19.630Z,99761.03
2022-12-15T22:39:20.869Z,99762.97
2022-12-15T22:44:22.062Z,99777.84
2022-12-15T22:49:23.210Z,99781.75
2022-12-15T22:54:24.462Z,99779.13
2022-12-15T22:59:26.074Z,99786.28
2022-12-15T23:04:27.292Z,99781.59
2022-12-15T23:09:28.492Z,99783.00
2022-12-15T23:14:48.499Z,99789.91
2022-12-15T23:19:49.648Z,99793.25
2022-12-15T23:24:50.895Z,99794.25
2022-12-15T23:29:52.139Z,99799.13
2022-12-15T23:34:53.315Z,99807.38
2022-12-15T23:39:54.494Z,99810.88
2022-12-15T23:44:56.003Z,99803.63
2022-12-15T23:49:57.462Z,99819.69
2022-12-15T23:54:58.861Z,99813.81
